createdAt,value
2018-06-09T00:00:27.965Z,34.37
2018-06-09T00:02:56.318Z,35.73
2018-06-09T00:05:24.674Z,33.13
2018-06-09T00:07:52.986Z,32.10
2018-06-09T00:10:21.354Z,32.77
2018-06-09T00:12:49.661Z,31.50
2018-06-09T00:15:18.040Z,33.50
2018-06-09T00:17:46.517Z,32.83
2018-06-09T00:20:14.914Z,34.97
2018-06-09T00:22:43.248Z,33.73
2018-06-09T00:25:11.614Z,32.50
2018-06-09T00:27:39.974Z,35.63
2018-06-09T00:30:08.288Z,34.17
2018-06-09T00:32:36.767Z,34.03
2018-06-09T00:35:05.999Z,34.97
2018-06-09T00:37:34.338Z,34.50
2018-06-09T00:40:02.869Z,37.10
2018-06-09T00:42:31.227Z,35.27
2018-06-09T00:44:59.545Z,33.40
2018-06-09T00:47:28.303Z,35.57
2018-06-09T00:49:56.636Z,35.87
2018-06-09T00:52:24.983Z,38.63
2018-06-09T00:54:53.491Z,38.33
2018-06-09T00:57:21.882Z,39.13
2018-06-09T00:59:50.267Z,39.17
2018-06-09T01:02:18.641Z,33.20
2018-06-09T01:04:46.953Z,38.33
2018-06-09T01:07:15.301Z,40.47
2018-06-09T01:09:43.707Z,39.37
2018-06-09T01:12:12.037Z,44.53
2018-06-09T01:14:40.387Z,40.23
2018-06-09T01:17:08.765Z,36.23
2018-06-09T01:19:37.132Z,39.37
2018-06-09T01:22:05.598Z,42.33
2018-06-09T01:24:33.960Z,41.13
2018-06-09T01:27:02.329Z,39.87
2018-06-09T01:29:30.687Z,38.17
2018-06-09T01:31:59.041Z,41.83
2018-06-09T01:34:27.380Z,41.67
2018-06-09T01:36:55.504Z,39.57
2018-06-09T01:39:23.910Z,40.90
2018-06-09T01:41:53.405Z,41.07
2018-06-09T01:44:21.808Z,41.50
2018-06-09T01:46:50.188Z,46.30
2018-06-09T01:49:18.615Z,43.87
2018-06-09T01:51:47.007Z,41.97
2018-06-09T01:54:15.407Z,40.70
2018-06-09T01:56:43.788Z,45.60
2018-06-09T01:59:12.113Z,39.67
2018-06-09T02:01:40.476Z,39.57
2018-06-09T02:04:08.786Z,42.90
2018-06-09T02:06:37.163Z,39.83
2018-06-09T02:09:08.480Z,39.17
2018-06-09T02:11:36.807Z,41.57
2018-06-09T02:14:05.227Z,45.67
2018-06-09T02:16:33.610Z,42.93
2018-06-09T02:19:01.927Z,43.77
2018-06-09T02:21:30.287Z,44.00
2018-06-09T02:23:58.695Z,38.57
2018-06-09T02:26:27.063Z,39.23
2018-06-09T02:28:55.419Z,42.63
2018-06-09T02:31:23.816Z,42.60
2018-06-09T02:33:52.136Z,40.93
2018-06-09T02:36:20.240Z,35.90
2018-06-09T02:38:48.704Z,39.50
2018-06-09T02:41:18.014Z,36.93
2018-06-09T02:43:46.397Z,40.60
2018-06-09T02:46:14.788Z,39.57
2018-06-09T02:48:43.103Z,40.23
2018-06-09T02:51:11.472Z,36.93
2018-06-09T02:53:39.980Z,37.23
2018-06-09T02:56:08.366Z,34.73
2018-06-09T02:58:36.688Z,39.80
2018-06-09T03:01:05.104Z,43.17
2018-06-09T03:03:33.460Z,36.40
2018-06-09T03:06:01.839Z,38.13
2018-06-09T03:08:30.271Z,37.00
2018-06-09T03:10:58.616Z,36.90
2018-06-09T03:13:26.980Z,36.63
2018-06-09T03:15:55.405Z,36.67
2018-06-09T03:18:23.759Z,37.87
2018-06-09T03:20:52.163Z,39.03
2018-06-09T03:23:20.533Z,36.67
2018-06-09T03:25:48.996Z,38.17
2018-06-09T03:28:17.384Z,39.50
2018-06-09T03:30:45.732Z,39.17
2018-06-09T03:33:14.060Z,36.63
2018-06-09T03:35:42.395Z,38.87
2018-06-09T03:38:10.751Z,36.23
2018-06-09T03:40:39.099Z,35.80
2018-06-09T03:43:07.445Z,37.23
2018-06-09T03:45:35.964Z,37.37
2018-06-09T03:48:04.691Z,39.17
2018-06-09T03:50:33.023Z,37.30
2018-06-09T03:53:01.375Z,36.27
2018-06-09T03:55:29.746Z,33.43
2018-06-09T03:57:58.071Z,34.47
2018-06-09T04:00:26.466Z,32.97
2018-06-09T04:02:54.803Z,33.93
2018-06-09T04:05:24.008Z,33.37
2018-06-09T04:07:52.724Z,32.70
2018-06-09T04:10:21.058Z,33.83
2018-06-09T04:12:49.391Z,34.90
2018-06-09T04:15:17.858Z,33.27
2018-06-09T04:17:46.181Z,32.43
2018-06-09T04:20:14.493Z,30.10
2018-06-09T04:22:42.893Z,32.57
2018-06-09T04:25:11.261Z,30.40
2018-06-09T04:27:39.626Z,28.17
2018-06-09T04:30:08.109Z,30.13
2018-06-09T04:32:36.429Z,29.20
2018-06-09T04:35:04.826Z,28.23
2018-06-09T04:37:33.481Z,28.60
2018-06-09T04:40:01.800Z,31.87
2018-06-09T04:42:30.105Z,28.50
2018-06-09T04:44:58.558Z,28.17
2018-06-09T04:47:26.886Z,25.60
2018-06-09T04:49:55.210Z,28.80
2018-06-09T04:52:23.542Z,28.73
2018-06-09T04:54:51.840Z,30.33
2018-06-09T04:57:20.678Z,27.60
2018-06-09T04:59:49.049Z,25.50
2018-06-09T05:02:17.392Z,29.57
2018-06-09T05:04:45.704Z,25.77
2018-06-09T05:07:14.173Z,26.83
2018-06-09T05:09:42.508Z,29.60
2018-06-09T05:12:10.564Z,29.37
2018-06-09T05:14:38.646Z,24.27
2018-06-09T05:17:06.733Z,25.13
2018-06-09T05:19:35.033Z,25.50
2018-06-09T05:22:03.151Z,23.63
2018-06-09T05:24:31.457Z,25.37
2018-06-09T05:26:59.904Z,24.90
2018-06-09T05:29:28.493Z,24.07
2018-06-09T05:31:56.894Z,27.67
2018-06-09T05:34:25.277Z,23.43
2018-06-09T05:36:53.637Z,24.53
2018-06-09T05:39:21.977Z,23.53
2018-06-09T05:41:50.326Z,26.53
2018-06-09T05:44:18.707Z,24.20
2018-06-09T05:46:47.061Z,24.67
2018-06-09T05:49:15.448Z,21.50
2018-06-09T05:51:43.790Z,27.33
2018-06-09T05:54:12.196Z,23.40
2018-06-09T05:56:40.513Z,20.93
2018-06-09T05:59:08.885Z,20.27
2018-06-09T06:01:37.216Z,23.27
2018-06-09T06:04:05.531Z,22.13
2018-06-09T06:06:33.998Z,25.60
2018-06-09T06:09:02.340Z,21.60
2018-06-09T06:11:30.727Z,21.80
2018-06-09T06:13:59.091Z,22.03
2018-06-09T06:16:27.446Z,21.07
2018-06-09T06:18:55.821Z,18.20
2018-06-09T06:21:24.201Z,19.93
2018-06-09T06:23:52.532Z,18.77
2018-06-09T06:26:20.882Z,19.80
2018-06-09T06:28:49.281Z,20.07
2018-06-09T06:31:17.685Z,21.27
2018-06-09T06:33:46.053Z,22.53
2018-06-09T06:36:14.621Z,17.97
2018-06-09T06:38:42.989Z,21.20
2018-06-09T06:41:11.418Z,22.37
2018-06-09T06:43:39.885Z,18.47
2018-06-09T06:46:08.213Z,17.37
2018-06-09T06:48:36.585Z,20.33
2018-06-09T06:51:05.143Z,21.13
2018-06-09T06:53:33.498Z,15.00
2018-06-09T06:56:01.824Z,19.27
2018-06-09T06:58:30.244Z,17.23
2018-06-09T07:00:58.331Z,14.37
2018-06-09T07:03:26.414Z,15.40
2018-06-09T07:05:54.774Z,16.50
2018-06-09T07:08:22.880Z,16.60
2018-06-09T07:10:51.226Z,17.07
2018-06-09T07:13:19.553Z,14.03
2018-06-09T07:15:47.873Z,14.43
2018-06-09T07:18:16.257Z,14.40
2018-06-09T07:20:44.785Z,12.30
2018-06-09T07:23:13.126Z,16.70
2018-06-09T07:25:41.423Z,14.03
2018-06-09T07:28:09.826Z,12.57
2018-06-09T07:30:38.168Z,14.07
2018-06-09T07:33:06.623Z,16.27
2018-06-09T07:35:34.979Z,13.87
2018-06-09T07:38:03.283Z,14.03
2018-06-09T07:40:31.628Z,15.97
2018-06-09T07:42:59.969Z,14.57
2018-06-09T07:45:28.293Z,12.93
2018-06-09T07:47:56.611Z,10.60
2018-06-09T07:50:24.684Z,12.40
2018-06-09T07:52:52.748Z,15.03
2018-06-09T07:55:21.059Z,12.80
2018-06-09T07:57:49.549Z,14.10
2018-06-09T08:00:17.878Z,13.43
2018-06-09T08:02:46.165Z,13.47
2018-06-09T08:05:14.569Z,15.13
2018-06-09T08:07:42.884Z,15.27
2018-06-09T08:10:11.793Z,14.63
2018-06-09T08:12:40.195Z,9.97
2018-06-09T08:15:08.574Z,14.27
2018-06-09T08:17:36.898Z,14.57
2018-06-09T08:20:06.268Z,12.13
2018-06-09T08:22:34.328Z,14.37
2018-06-09T08:25:02.658Z,13.97
2018-06-09T08:27:31.257Z,13.60
2018-06-09T08:29:59.583Z,13.47
2018-06-09T08:32:27.861Z,13.80
2018-06-09T08:34:56.266Z,14.17
2018-06-09T08:37:24.609Z,12.90
2018-06-09T08:39:52.952Z,14.93
2018-06-09T08:42:21.530Z,13.20
2018-06-09T08:44:49.850Z,14.57
2018-06-09T08:47:18.201Z,15.10
2018-06-09T08:49:46.672Z,13.00
2018-06-09T08:52:15.010Z,11.20
2018-06-09T08:54:43.354Z,12.93
2018-06-09T08:57:11.861Z,14.00
2018-06-09T08:59:40.163Z,15.33
2018-06-09T09:02:08.527Z,19.40
2018-06-09T09:04:36.904Z,12.33
2018-06-09T09:07:05.269Z,15.30
2018-06-09T09:09:33.621Z,14.90
2018-06-09T09:12:02.479Z,15.20
2018-06-09T09:14:30.798Z,14.10
2018-06-09T09:16:59.185Z,12.83
2018-06-09T09:19:27.629Z,14.57
2018-06-09T09:21:56.018Z,15.30
2018-06-09T09:24:24.434Z,12.33
2018-06-09T09:26:52.501Z,11.20
2018-06-09T09:29:20.795Z,15.47
2018-06-09T09:31:49.104Z,15.07
2018-06-09T09:34:17.481Z,15.13
2018-06-09T09:36:46.847Z,13.87
2018-06-09T09:39:14.939Z,11.10
2018-06-09T09:41:43.253Z,13.87
2018-06-09T09:44:11.585Z,14.10
2018-06-09T09:46:39.916Z,15.50
2018-06-09T09:49:08.454Z,11.33
2018-06-09T09:51:36.758Z,14.50
2018-06-09T09:54:05.189Z,11.20
2018-06-09T09:56:33.424Z,14.23
2018-06-09T09:59:01.797Z,11.43
2018-06-09T10:01:30.182Z,11.37
2018-06-09T10:03:58.501Z,12.77
2018-06-09T10:06:26.816Z,11.83
2018-06-09T10:08:55.114Z,11.20
2018-06-09T10:11:23.449Z,12.47
2018-06-09T10:13:51.805Z,13.03
2018-06-09T10:16:20.141Z,17.00
2018-06-09T10:18:48.545Z,13.87
2018-06-09T10:21:16.883Z,13.43
2018-06-09T10:23:45.190Z,12.37
2018-06-09T10:26:13.632Z,13.90
2018-06-09T10:28:41.929Z,13.53
2018-06-09T10:31:10.311Z,14.33
2018-06-09T10:33:38.758Z,11.67
2018-06-09T10:36:07.210Z,11.07
2018-06-09T10:38:36.905Z,11.47
2018-06-09T10:41:05.273Z,11.90
2018-06-09T10:43:33.638Z,11.63
2018-06-09T10:46:01.972Z,13.17
2018-06-09T10:48:30.301Z,10.70
2018-06-09T10:50:58.661Z,14.53
2018-06-09T10:53:26.996Z,12.47
2018-06-09T10:55:55.437Z,12.47
2018-06-09T10:58:23.799Z,14.00
2018-06-09T11:00:52.094Z,14.30
2018-06-09T11:03:20.642Z,13.17
2018-06-09T11:05:48.958Z,10.17
2018-06-09T11:08:17.341Z,13.43
2018-06-09T11:10:45.769Z,11.83
2018-06-09T11:13:14.176Z,13.10
2018-06-09T11:15:42.461Z,11.83
2018-06-09T11:18:10.908Z,12.10
2018-06-09T11:20:39.480Z,11.00
2018-06-09T11:23:07.814Z,14.40
2018-06-09T11:25:36.371Z,11.30
2018-06-09T11:28:04.726Z,10.40
2018-06-09T11:30:33.110Z,15.33
2018-06-09T11:33:01.828Z,12.70
2018-06-09T11:35:30.140Z,12.33
2018-06-09T11:37:58.493Z,11.63
2018-06-09T11:40:27.025Z,12.83
2018-06-09T11:42:55.373Z,12.63
2018-06-09T11:45:23.785Z,12.93
2018-06-09T11:47:52.154Z,11.83
2018-06-09T11:50:20.478Z,13.73
2018-06-09T11:52:48.794Z,13.07
2018-06-09T11:55:17.181Z,10.97
2018-06-09T11:57:45.506Z,11.87
2018-06-09T12:00:13.894Z,12.03
2018-06-09T12:02:42.373Z,11.03
2018-06-09T12:05:10.754Z,9.80
2018-06-09T12:07:39.074Z,12.03
2018-06-09T12:10:07.829Z,10.73
2018-06-09T12:12:36.146Z,11.27
2018-06-09T12:15:04.584Z,13.73
2018-06-09T12:17:32.991Z,10.43
2018-06-09T12:20:01.629Z,13.67
2018-06-09T12:22:30.412Z,11.03
2018-06-09T12:24:58.973Z,12.30
2018-06-09T12:27:27.976Z,13.00
2018-06-09T12:29:56.304Z,14.83
2018-06-09T12:32:24.826Z,12.07
2018-06-09T12:34:53.157Z,11.07
2018-06-09T12:37:21.477Z,11.23
2018-06-09T12:39:49.981Z,11.07
2018-06-09T12:42:18.445Z,10.00
2018-06-09T12:44:46.794Z,11.90
2018-06-09T12:47:15.251Z,13.37
2018-06-09T12:49:43.569Z,12.30
2018-06-09T12:52:11.911Z,13.07
2018-06-09T12:54:40.721Z,12.13
2018-06-09T12:57:09.041Z,14.70
2018-06-09T12:59:37.419Z,13.83
2018-06-09T13:02:05.756Z,13.13
2018-06-09T13:04:34.049Z,12.57
2018-06-09T13:07:02.374Z,11.83
2018-06-09T13:09:30.765Z,11.53
2018-06-09T13:11:59.094Z,12.30
2018-06-09T13:14:27.431Z,10.70
2018-06-09T13:16:56.140Z,14.03
2018-06-09T13:19:24.556Z,12.70
2018-06-09T13:21:52.967Z,13.70
2018-06-09T13:24:21.439Z,11.53
2018-06-09T13:26:49.782Z,12.73
2018-06-09T13:29:18.933Z,13.67
2018-06-09T13:31:47.730Z,12.40
2018-06-09T13:34:16.074Z,15.90
2018-06-09T13:36:44.425Z,11.43
2018-06-09T13:39:12.805Z,11.83
2018-06-09T13:41:41.143Z,12.60
2018-06-09T13:44:09.604Z,11.37
2018-06-09T13:46:37.996Z,13.97
2018-06-09T13:49:06.352Z,13.30
2018-06-09T13:51:35.039Z,14.90
2018-06-09T13:54:03.825Z,14.50
2018-06-09T13:56:32.151Z,15.97
2018-06-09T13:59:00.628Z,11.63
2018-06-09T14:01:29.031Z,12.00
2018-06-09T14:03:57.358Z,13.57
2018-06-09T14:06:25.805Z,15.77
2018-06-09T14:08:54.145Z,14.13
2018-06-09T14:11:22.445Z,14.80
2018-06-09T14:13:50.789Z,15.93
2018-06-09T14:16:19.114Z,14.93
2018-06-09T14:18:47.437Z,15.47
2018-06-09T14:21:15.758Z,14.00
2018-06-09T14:23:44.167Z,17.17
2018-06-09T14:26:12.479Z,15.70
2018-06-09T14:28:40.836Z,15.93
2018-06-09T14:31:09.237Z,15.50
2018-06-09T14:33:37.653Z,16.87
2018-06-09T14:36:05.962Z,14.93
2018-06-09T14:38:34.452Z,17.23
2018-06-09T14:41:02.780Z,16.70
2018-06-09T14:43:31.136Z,16.10
2018-06-09T14:45:59.633Z,14.27
2018-06-09T14:48:28.584Z,17.00
2018-06-09T14:50:56.924Z,17.83
2018-06-09T14:53:26.205Z,14.97
2018-06-09T14:55:54.578Z,14.70
2018-06-09T14:58:22.945Z,14.77
2018-06-09T15:00:51.366Z,13.93
2018-06-09T15:03:19.421Z,16.83
2018-06-09T15:05:47.808Z,16.23
2018-06-09T15:08:16.238Z,15.73
2018-06-09T15:10:44.675Z,15.73
2018-06-09T15:13:13.051Z,13.30
2018-06-09T15:15:41.464Z,16.07
2018-06-09T15:18:09.857Z,15.23
2018-06-09T15:20:38.229Z,12.43
2018-06-09T15:23:06.758Z,13.80
2018-06-09T15:25:35.092Z,13.67
2018-06-09T15:28:03.395Z,15.50
2018-06-09T15:30:31.893Z,14.40
2018-06-09T15:33:00.618Z,14.80
2018-06-09T15:35:28.994Z,15.17
2018-06-09T15:37:57.465Z,17.80
2018-06-09T15:40:25.809Z,15.17
2018-06-09T15:42:54.117Z,12.90
2018-06-09T15:45:22.487Z,17.40
2018-06-09T15:47:51.042Z,15.37
2018-06-09T15:50:19.350Z,15.97
2018-06-09T15:52:47.749Z,15.53
2018-06-09T15:55:16.226Z,14.53
2018-06-09T15:57:44.288Z,15.97
2018-06-09T16:00:12.719Z,17.63
2018-06-09T16:02:41.057Z,17.47
2018-06-09T16:05:09.117Z,15.60
2018-06-09T16:07:37.725Z,17.47
2018-06-09T16:10:06.165Z,15.87
2018-06-09T16:12:34.445Z,17.00
2018-06-09T16:15:02.884Z,16.20
2018-06-09T16:17:31.181Z,17.90
2018-06-09T16:19:59.522Z,13.03
2018-06-09T16:22:28.051Z,16.20
2018-06-09T16:24:56.390Z,15.83
2018-06-09T16:27:25.381Z,15.53
2018-06-09T16:29:53.761Z,17.20
2018-06-09T16:32:22.146Z,20.17
2018-06-09T16:34:50.564Z,18.93
2018-06-09T16:37:18.880Z,17.30
2018-06-09T16:39:47.244Z,17.73
2018-06-09T16:42:15.629Z,16.50
2018-06-09T16:44:43.974Z,16.23
2018-06-09T16:47:12.408Z,18.00
2018-06-09T16:52:33.004Z,15.73
